createdAt,value
2017-10-29T00:00:27.287Z,9.17
2017-10-29T00:02:54.727Z,9.73
2017-10-29T00:05:22.224Z,10.97
2017-10-29T00:07:49.675Z,8.30
2017-10-29T00:10:17.143Z,9.17
2017-10-29T00:12:44.611Z,10.17
2017-10-29T00:15:12.063Z,8.27
2017-10-29T00:17:39.523Z,9.43
2017-10-29T00:20:06.967Z,7.97
2017-10-29T00:22:34.423Z,9.20
2017-10-29T00:25:01.875Z,9.00
2017-10-29T00:27:29.443Z,8.97
2017-10-29T00:29:57.004Z,8.53
2017-10-29T00:32:24.448Z,7.70
2017-10-29T00:34:51.908Z,7.67
2017-10-29T00:37:19.355Z,7.37
2017-10-29T00:39:46.832Z,6.63
2017-10-29T00:42:14.266Z,7.57
2017-10-29T00:44:41.696Z,7.50
2017-10-29T00:47:09.207Z,6.07
2017-10-29T00:49:36.656Z,5.97
2017-10-29T00:52:04.115Z,6.83
2017-10-29T00:54:31.555Z,7.53
2017-10-29T00:56:59.008Z,5.50
2017-10-29T00:59:26.447Z,6.43
2017-10-29T01:01:53.904Z,6.63
2017-10-29T01:04:21.343Z,5.53
2017-10-29T01:06:49.576Z,6.07
2017-10-29T01:09:17.030Z,5.03
2017-10-29T01:11:44.471Z,5.90
2017-10-29T01:14:11.943Z,5.00
2017-10-29T01:16:39.391Z,5.20
2017-10-29T01:19:06.847Z,4.83
2017-10-29T01:21:34.315Z,4.33
2017-10-29T01:24:01.756Z,4.90
2017-10-29T01:26:29.198Z,4.53
2017-10-29T01:28:56.637Z,5.00
2017-10-29T01:31:24.851Z,4.87
2017-10-29T01:33:52.307Z,4.67
2017-10-29T01:36:19.768Z,4.83
2017-10-29T01:38:47.216Z,5.57
2017-10-29T01:41:14.658Z,6.80
2017-10-29T01:43:42.152Z,5.40
2017-10-29T01:46:09.599Z,4.97
2017-10-29T01:48:37.055Z,4.80
2017-10-29T01:51:04.486Z,4.50
2017-10-29T01:53:31.935Z,4.23
2017-10-29T01:55:59.436Z,5.03
2017-10-29T01:58:26.879Z,5.23
2017-10-29T02:00:54.332Z,4.10
2017-10-29T02:03:21.764Z,4.00
2017-10-29T02:05:49.210Z,4.97
2017-10-29T02:08:16.651Z,5.00
2017-10-29T02:10:44.867Z,5.13
2017-10-29T02:13:12.300Z,5.17
2017-10-29T02:15:40.502Z,4.53
2017-10-29T02:18:07.961Z,5.70
2017-10-29T02:20:35.442Z,4.90
2017-10-29T02:23:02.899Z,5.63
2017-10-29T02:25:30.352Z,5.27
2017-10-29T02:27:58.835Z,4.27
2017-10-29T02:30:26.296Z,6.47
2017-10-29T02:32:53.737Z,5.43
2017-10-29T02:35:21.191Z,5.40
2017-10-29T02:37:48.624Z,5.57
2017-10-29T02:40:16.080Z,6.03
2017-10-29T02:42:43.516Z,6.23
2017-10-29T02:45:11.752Z,5.63
2017-10-29T02:47:39.196Z,6.60
2017-10-29T02:50:06.645Z,4.70
2017-10-29T02:52:34.122Z,5.50
2017-10-29T02:55:01.567Z,5.60
2017-10-29T02:57:29.041Z,5.87
2017-10-29T02:59:56.475Z,5.20
2017-10-29T03:02:23.934Z,5.77
2017-10-29T03:04:51.387Z,6.93
2017-10-29T03:07:18.823Z,5.90
2017-10-29T03:09:46.279Z,5.77
2017-10-29T03:12:13.707Z,5.33
2017-10-29T03:14:41.925Z,5.90
2017-10-29T03:17:09.353Z,5.80
2017-10-29T03:19:37.568Z,5.77
2017-10-29T03:22:05.039Z,6.60
2017-10-29T03:24:32.495Z,5.03
2017-10-29T03:27:00.058Z,5.83
2017-10-29T03:29:27.494Z,5.20
2017-10-29T03:31:54.972Z,5.07
2017-10-29T03:34:22.418Z,5.47
2017-10-29T03:36:49.876Z,5.60
2017-10-29T03:39:17.352Z,6.10
2017-10-29T03:41:44.785Z,5.10
2017-10-29T03:44:12.241Z,5.20
2017-10-29T03:46:39.714Z,4.23
2017-10-29T03:49:07.277Z,4.33
2017-10-29T03:51:34.717Z,4.33
2017-10-29T03:54:02.187Z,4.60
2017-10-29T03:56:29.630Z,3.80
2017-10-29T03:58:57.103Z,3.93
2017-10-29T04:01:24.555Z,3.93
2017-10-29T04:03:52.003Z,3.77
2017-10-29T04:06:19.457Z,3.87
2017-10-29T04:08:46.916Z,3.00
2017-10-29T04:11:14.380Z,2.27
2017-10-29T04:13:41.821Z,1.90
2017-10-29T04:16:09.255Z,2.83
2017-10-29T04:18:36.707Z,3.50
2017-10-29T04:21:04.918Z,1.50
2017-10-29T04:23:32.371Z,1.47
2017-10-29T04:25:59.819Z,1.93
2017-10-29T04:28:27.288Z,2.30
2017-10-29T04:30:54.723Z,2.47
2017-10-29T04:33:22.162Z,2.33
2017-10-29T04:35:50.376Z,2.93
2017-10-29T04:38:17.833Z,2.20
2017-10-29T04:40:45.288Z,2.10
2017-10-29T04:43:12.744Z,2.60
2017-10-29T04:45:40.223Z,1.87
2017-10-29T04:48:07.687Z,2.20
2017-10-29T04:50:35.110Z,1.80
2017-10-29T04:53:02.590Z,1.67
2017-10-29T04:55:30.051Z,1.73
2017-10-29T04:57:57.506Z,2.10
2017-10-29T05:00:24.967Z,1.90
2017-10-29T05:02:52.425Z,2.03
2017-10-29T05:05:19.847Z,1.87
2017-10-29T05:07:47.319Z,2.03
2017-10-29T05:10:14.790Z,1.70
2017-10-29T05:12:42.242Z,1.80
2017-10-29T05:15:09.683Z,1.50
2017-10-29T05:17:37.165Z,1.20
2017-10-29T05:20:04.622Z,1.33
2017-10-29T05:22:32.072Z,1.43
2017-10-29T05:24:59.518Z,1.70
2017-10-29T05:27:26.959Z,1.40
2017-10-29T05:29:54.432Z,1.50
2017-10-29T05:32:21.907Z,1.30
2017-10-29T05:34:49.364Z,1.30
2017-10-29T05:37:17.583Z,1.20
2017-10-29T05:39:45.812Z,1.40
2017-10-29T05:42:13.263Z,1.80
2017-10-29T05:44:40.703Z,1.33
2017-10-29T05:47:08.160Z,1.57
2017-10-29T05:49:35.603Z,2.53
2017-10-29T05:52:03.105Z,1.90
2017-10-29T05:54:30.561Z,1.80
2017-10-29T05:56:57.999Z,1.97
2017-10-29T05:59:25.552Z,1.73
2017-10-29T06:01:52.976Z,1.83
2017-10-29T06:04:21.204Z,1.57
2017-10-29T06:06:48.651Z,2.53
2017-10-29T06:09:16.112Z,3.10
2017-10-29T06:11:43.555Z,2.50
2017-10-29T06:14:11.036Z,1.90
2017-10-29T06:16:38.492Z,2.60
2017-10-29T06:19:05.936Z,1.63
2017-10-29T06:21:33.387Z,2.60
2017-10-29T06:24:00.826Z,2.67
2017-10-29T06:26:28.279Z,1.93
2017-10-29T06:28:55.722Z,2.40
2017-10-29T06:31:23.941Z,2.70
2017-10-29T06:33:51.387Z,2.67
2017-10-29T06:36:18.832Z,2.93
2017-10-29T06:38:46.293Z,3.00
2017-10-29T06:41:13.744Z,2.40
2017-10-29T06:43:41.235Z,2.50
2017-10-29T06:46:08.687Z,2.83
2017-10-29T06:48:36.144Z,3.00
2017-10-29T06:51:03.575Z,2.23
2017-10-29T06:53:31.058Z,3.20
2017-10-29T06:55:58.527Z,2.33
2017-10-29T06:58:26.115Z,2.80
2017-10-29T07:00:53.568Z,3.27
2017-10-29T07:03:21.780Z,3.00
2017-10-29T07:05:49.255Z,3.83
2017-10-29T07:08:16.707Z,2.70
2017-10-29T07:10:44.155Z,3.23
2017-10-29T07:13:11.643Z,2.40
2017-10-29T07:15:39.204Z,3.07
2017-10-29T07:18:06.659Z,4.13
2017-10-29T07:20:34.099Z,3.77
2017-10-29T07:23:01.576Z,2.80
2017-10-29T07:25:29.023Z,4.20
2017-10-29T07:27:56.591Z,3.33
2017-10-29T07:30:24.039Z,3.90
2017-10-29T07:32:51.487Z,3.80
2017-10-29T07:35:18.944Z,3.00
2017-10-29T07:37:46.406Z,3.63
2017-10-29T07:40:13.878Z,3.97
2017-10-29T07:42:41.343Z,3.40
2017-10-29T07:45:08.791Z,4.80
2017-10-29T07:47:36.239Z,5.37
2017-10-29T07:50:03.692Z,4.90
2017-10-29T07:52:31.137Z,4.17
2017-10-29T07:54:58.595Z,3.67
2017-10-29T07:57:26.094Z,6.70
2017-10-29T07:59:53.549Z,3.63
2017-10-29T08:02:20.997Z,4.37
2017-10-29T08:04:48.554Z,4.30
2017-10-29T08:07:15.994Z,5.00
2017-10-29T08:09:43.450Z,5.23
2017-10-29T08:12:10.901Z,5.00
2017-10-29T08:14:38.354Z,4.17
2017-10-29T08:17:05.800Z,4.30
2017-10-29T08:19:33.295Z,4.67
2017-10-29T08:22:00.748Z,6.03
2017-10-29T08:24:28.226Z,3.70
2017-10-29T08:26:55.672Z,3.57
2017-10-29T08:29:23.123Z,4.60
2017-10-29T08:31:50.583Z,3.70
2017-10-29T08:34:18.027Z,5.27
2017-10-29T08:36:45.483Z,4.47
2017-10-29T08:39:12.930Z,4.10
2017-10-29T08:41:40.396Z,4.60
2017-10-29T08:44:07.844Z,4.10
2017-10-29T08:46:35.301Z,5.27
2017-10-29T08:49:02.759Z,3.93
2017-10-29T08:51:30.218Z,5.30
2017-10-29T08:53:57.668Z,5.50
2017-10-29T08:56:25.227Z,5.30
2017-10-29T08:58:52.671Z,3.70
2017-10-29T09:01:20.127Z,4.43
2017-10-29T09:03:47.578Z,4.93
2017-10-29T09:06:15.045Z,4.37
2017-10-29T09:08:42.483Z,5.53
2017-10-29T09:11:10.723Z,4.73
2017-10-29T09:13:38.167Z,3.83
2017-10-29T09:16:05.639Z,5.87
2017-10-29T09:18:33.103Z,4.83
2017-10-29T09:21:00.550Z,4.13
2017-10-29T09:23:28.007Z,4.13
2017-10-29T09:25:56.288Z,4.20
2017-10-29T09:28:23.774Z,4.10
2017-10-29T09:30:51.207Z,4.50
2017-10-29T09:33:18.659Z,5.60
2017-10-29T09:35:46.119Z,4.27
2017-10-29T09:38:13.571Z,4.50
2017-10-29T09:40:41.022Z,3.50
2017-10-29T09:43:08.476Z,4.20
2017-10-29T09:45:35.927Z,3.60
2017-10-29T09:48:03.379Z,4.10
2017-10-29T09:50:30.828Z,4.40
2017-10-29T09:52:58.291Z,5.30
2017-10-29T09:55:25.737Z,3.67
2017-10-29T09:57:56.140Z,4.50
2017-10-29T10:00:23.655Z,4.03
2017-10-29T10:02:51.111Z,4.10
2017-10-29T10:05:18.563Z,3.70
2017-10-29T10:07:46.032Z,3.70
2017-10-29T10:10:13.474Z,4.37
2017-10-29T10:12:40.926Z,3.90
2017-10-29T10:15:08.388Z,3.63
2017-10-29T10:17:35.836Z,5.07
2017-10-29T10:20:03.296Z,3.87
2017-10-29T10:22:30.732Z,3.70
2017-10-29T10:24:58.193Z,3.17
2017-10-29T10:27:25.646Z,3.33
2017-10-29T10:29:53.094Z,3.27
2017-10-29T10:32:20.539Z,3.13
2017-10-29T10:34:47.996Z,3.70
2017-10-29T10:37:15.443Z,4.50
2017-10-29T10:39:43.663Z,3.27
2017-10-29T10:42:11.111Z,3.50
2017-10-29T10:44:38.567Z,4.40
2017-10-29T10:47:06.020Z,3.67
2017-10-29T10:49:33.473Z,2.53
2017-10-29T10:52:00.908Z,4.07
2017-10-29T10:54:28.359Z,3.33
2017-10-29T10:56:56.572Z,4.30
2017-10-29T10:59:24.027Z,3.50
2017-10-29T11:01:51.489Z,3.07
2017-10-29T11:04:18.935Z,3.13
2017-10-29T11:06:46.404Z,2.97
2017-10-29T11:09:13.860Z,2.90
2017-10-29T11:11:41.314Z,3.10
2017-10-29T11:14:08.771Z,3.07
2017-10-29T11:16:36.240Z,3.50
2017-10-29T11:19:03.695Z,3.10
2017-10-29T11:21:31.142Z,3.20
2017-10-29T11:23:58.606Z,3.57
2017-10-29T11:26:26.052Z,3.03
2017-10-29T11:28:53.487Z,2.80
2017-10-29T11:31:20.951Z,3.20
2017-10-29T11:33:48.390Z,2.97
2017-10-29T11:36:16.604Z,3.30
2017-10-29T11:38:44.054Z,2.40
2017-10-29T11:41:11.512Z,2.77
2017-10-29T11:43:38.959Z,2.43
2017-10-29T11:46:06.398Z,3.63
2017-10-29T11:48:33.855Z,2.60
2017-10-29T11:51:01.303Z,2.90
2017-10-29T11:53:29.526Z,2.93
2017-10-29T11:55:56.979Z,3.20
2017-10-29T11:58:24.428Z,3.30
2017-10-29T12:00:51.875Z,2.70
2017-10-29T12:03:19.327Z,2.63
2017-10-29T12:05:46.766Z,3.57
2017-10-29T12:08:14.991Z,2.60
2017-10-29T12:10:43.200Z,3.20
2017-10-29T12:13:10.651Z,3.23
2017-10-29T12:15:38.095Z,2.23
2017-10-29T12:18:05.554Z,2.90
2017-10-29T12:20:33.003Z,2.30
2017-10-29T12:23:00.463Z,3.00
2017-10-29T12:25:27.911Z,2.50
2017-10-29T12:27:55.377Z,3.00
2017-10-29T12:30:22.826Z,2.17
2017-10-29T12:32:50.300Z,2.17
2017-10-29T12:35:17.748Z,3.00
2017-10-29T12:37:45.191Z,3.40
2017-10-29T12:40:12.647Z,2.27
2017-10-29T12:42:40.098Z,4.20
2017-10-29T12:45:07.563Z,2.67
2017-10-29T12:47:35.008Z,2.00
2017-10-29T12:50:02.472Z,3.07
2017-10-29T12:52:29.926Z,2.50
2017-10-29T12:54:57.392Z,3.03
2017-10-29T12:57:24.836Z,2.23
2017-10-29T12:59:52.294Z,2.20
2017-10-29T13:02:19.730Z,2.53
2017-10-29T13:04:47.191Z,3.27
2017-10-29T13:07:14.635Z,3.37
2017-10-29T13:09:42.093Z,2.30
2017-10-29T13:12:10.302Z,2.80
2017-10-29T13:14:37.767Z,3.30
2017-10-29T13:17:05.199Z,2.27
2017-10-29T13:19:32.668Z,2.40
2017-10-29T13:22:00.119Z,2.70
2017-10-29T13:24:27.653Z,1.93
2017-10-29T13:26:55.107Z,2.53
2017-10-29T13:29:23.324Z,1.60
2017-10-29T13:31:50.783Z,2.17
2017-10-29T13:34:18.229Z,1.50
2017-10-29T13:36:45.678Z,1.37
2017-10-29T13:39:13.121Z,1.17
2017-10-29T13:41:40.566Z,2.17
2017-10-29T13:44:08.776Z,2.00
2017-10-29T13:46:36.233Z,1.43
2017-10-29T13:49:03.675Z,2.83
2017-10-29T13:51:31.170Z,1.97
2017-10-29T13:53:58.628Z,3.30
2017-10-29T13:56:26.082Z,3.60
2017-10-29T13:58:53.532Z,2.50
2017-10-29T14:01:20.987Z,2.20
2017-10-29T14:03:48.429Z,2.40
2017-10-29T14:06:15.911Z,1.80
2017-10-29T14:08:43.361Z,1.90
2017-10-29T14:11:10.819Z,2.30
2017-10-29T14:13:38.260Z,1.73
2017-10-29T14:16:05.703Z,2.00
2017-10-29T14:18:33.154Z,2.20
2017-10-29T14:21:00.596Z,1.77
2017-10-29T14:23:28.815Z,2.00
2017-10-29T14:25:56.264Z,2.37
2017-10-29T14:28:23.717Z,1.80
2017-10-29T14:30:51.160Z,1.67
2017-10-29T14:33:18.611Z,1.77
2017-10-29T14:35:46.061Z,2.60
2017-10-29T14:38:14.290Z,1.67
2017-10-29T14:40:41.735Z,2.50
2017-10-29T14:43:09.188Z,1.70
2017-10-29T14:45:36.633Z,1.70
2017-10-29T14:48:04.091Z,2.80
2017-10-29T14:50:31.531Z,2.03
2017-10-29T14:52:58.984Z,2.20
2017-10-29T14:55:26.426Z,2.03
2017-10-29T14:57:54.647Z,2.60
2017-10-29T15:00:22.100Z,2.00
2017-10-29T15:02:49.575Z,2.67
2017-10-29T15:05:17.023Z,2.63
2017-10-29T15:07:44.479Z,2.57
2017-10-29T15:10:11.938Z,2.23
2017-10-29T15:12:39.386Z,2.33
2017-10-29T15:15:06.840Z,2.47
2017-10-29T15:17:34.293Z,2.53
2017-10-29T15:20:01.740Z,3.07
2017-10-29T15:22:29.178Z,2.13
2017-10-29T15:24:57.396Z,2.60
2017-10-29T15:27:24.844Z,2.73
2017-10-29T15:29:52.300Z,2.60
2017-10-29T15:32:19.743Z,1.87
2017-10-29T15:34:47.194Z,1.97
2017-10-29T15:37:14.630Z,2.70
2017-10-29T15:39:42.853Z,2.77
2017-10-29T15:42:10.298Z,2.50
2017-10-29T15:44:37.746Z,2.00
2017-10-29T15:47:05.192Z,2.77
2017-10-29T15:49:32.647Z,2.97
2017-10-29T15:52:00.088Z,3.50
2017-10-29T15:54:28.307Z,5.17
2017-10-29T15:56:55.756Z,4.33
2017-10-29T15:59:23.202Z,3.00
2017-10-29T16:01:50.660Z,6.10
2017-10-29T16:04:18.103Z,4.33
2017-10-29T16:06:45.551Z,3.63
2017-10-29T16:09:13.779Z,3.50
2017-10-29T16:11:41.372Z,3.43
2017-10-29T16:14:08.806Z,4.87
2017-10-29T16:16:36.266Z,5.37
2017-10-29T16:19:03.711Z,5.80
2017-10-29T16:21:31.182Z,5.17
2017-10-29T16:23:58.633Z,4.17
2017-10-29T16:26:26.192Z,4.53
2017-10-29T16:28:53.631Z,5.60
2017-10-29T16:31:21.088Z,6.50
2017-10-29T16:33:48.541Z,6.33
2017-10-29T16:36:15.990Z,6.23
2017-10-29T16:38:43.440Z,12.27
2017-10-29T16:41:10.925Z,4.20
2017-10-29T16:43:38.372Z,5.07
2017-10-29T16:46:05.809Z,3.70
2017-10-29T16:48:33.261Z,4.27
2017-10-29T16:51:00.703Z,4.87
2017-10-29T16:53:28.926Z,4.40
2017-10-29T16:55:56.372Z,3.90
2017-10-29T16:58:23.829Z,3.97
2017-10-29T17:00:51.276Z,4.13
2017-10-29T17:03:18.737Z,3.70
2017-10-29T17:05:46.175Z,2.83
2017-10-29T17:08:14.385Z,3.70
2017-10-29T17:10:41.832Z,3.40
2017-10-29T17:13:09.290Z,4.10
2017-10-29T17:15:36.756Z,3.60
2017-10-29T17:18:04.197Z,2.37
2017-10-29T17:20:31.636Z,4.17
2017-10-29T17:22:59.091Z,3.63
2017-10-29T17:25:26.536Z,3.13
2017-10-29T17:27:54.759Z,3.03
2017-10-29T17:30:22.201Z,3.87
2017-10-29T17:32:49.642Z,3.77
2017-10-29T17:35:17.120Z,4.00
2017-10-29T17:37:44.562Z,3.50
2017-10-29T17:40:12.005Z,3.67
2017-10-29T17:42:39.451Z,3.63
2017-10-29T17:45:06.900Z,3.43
2017-10-29T17:47:35.119Z,4.57
2017-10-29T17:50:02.579Z,4.30
2017-10-29T17:52:30.019Z,5.13
2017-10-29T17:54:57.468Z,4.20
2017-10-29T17:57:24.920Z,4.73
2017-10-29T17:59:53.136Z,5.10
2017-10-29T18:02:20.587Z,4.80
2017-10-29T18:04:48.043Z,4.07
2017-10-29T18:07:15.498Z,4.93
2017-10-29T18:09:42.954Z,3.97
2017-10-29T18:12:10.398Z,5.17
2017-10-29T18:14:37.839Z,4.70
2017-10-29T18:17:05.283Z,9.77
2017-10-29T18:19:33.522Z,8.00
2017-10-29T18:22:00.967Z,18.80
2017-10-29T18:24:28.415Z,13.50
2017-10-29T18:26:55.998Z,11.83
2017-10-29T18:29:23.439Z,6.90
2017-10-29T18:31:50.891Z,4.73
2017-10-29T18:34:18.340Z,5.20
2017-10-29T18:36:45.825Z,4.37
2017-10-29T18:39:13.259Z,6.93
2017-10-29T18:41:40.727Z,4.57
2017-10-29T18:44:08.175Z,3.60
2017-10-29T18:46:35.650Z,5.60
2017-10-29T18:49:03.082Z,4.07
2017-10-29T18:51:30.545Z,3.13
2017-10-29T18:53:57.997Z,3.60
2017-10-29T18:56:25.480Z,6.30
2017-10-29T18:58:52.939Z,5.60
2017-10-29T19:01:20.409Z,7.73
2017-10-29T19:03:47.853Z,7.53
2017-10-29T19:06:15.411Z,10.07
2017-10-29T19:08:42.862Z,7.40
2017-10-29T19:11:10.430Z,5.80
2017-10-29T19:13:37.883Z,4.00
2017-10-29T19:16:05.339Z,5.67
2017-10-29T19:18:32.790Z,4.97
2017-10-29T19:21:00.240Z,4.73
2017-10-29T19:23:27.720Z,5.63
2017-10-29T19:25:55.150Z,4.50
2017-10-29T19:28:22.607Z,5.33
2017-10-29T19:30:50.083Z,4.20
2017-10-29T19:33:17.551Z,5.43
2017-10-29T19:35:44.987Z,5.33
2017-10-29T19:38:12.439Z,3.50
2017-10-29T19:40:39.942Z,5.40
2017-10-29T19:43:08.159Z,4.27
2017-10-29T19:45:35.587Z,3.17
2017-10-29T19:48:03.810Z,3.30
2017-10-29T19:50:31.247Z,3.93
2017-10-29T19:52:58.726Z,4.37
2017-10-29T19:55:26.174Z,3.20
2017-10-29T19:57:53.616Z,4.17
2017-10-29T20:00:21.046Z,3.97
2017-10-29T20:02:49.259Z,3.17
2017-10-29T20:05:16.704Z,3.50
2017-10-29T20:07:44.138Z,4.20
2017-10-29T20:10:12.361Z,3.57
2017-10-29T20:12:40.043Z,3.43
2017-10-29T20:15:07.601Z,3.00
2017-10-29T20:17:35.043Z,3.77
2017-10-29T20:20:02.499Z,3.90
2017-10-29T20:22:29.940Z,3.73
2017-10-29T20:24:57.383Z,3.33
2017-10-29T20:27:24.823Z,3.53
2017-10-29T20:29:53.032Z,2.87
2017-10-29T20:32:20.487Z,3.13
2017-10-29T20:34:47.937Z,3.77
2017-10-29T20:37:15.371Z,3.13
2017-10-29T20:39:42.824Z,3.20
2017-10-29T20:42:10.284Z,3.87
2017-10-29T20:44:37.731Z,5.03
2017-10-29T20:47:05.969Z,4.03
2017-10-29T20:49:33.428Z,2.63
2017-10-29T20:52:00.880Z,3.60
2017-10-29T20:54:28.324Z,3.20
2017-10-29T20:56:55.777Z,3.00
2017-10-29T20:59:23.223Z,4.30
2017-10-29T21:01:50.708Z,5.07
2017-10-29T21:04:18.155Z,3.80
2017-10-29T21:06:45.625Z,3.77
2017-10-29T21:09:13.071Z,4.53
2017-10-29T21:11:40.535Z,4.13
2017-10-29T21:14:07.958Z,3.30
2017-10-29T21:16:35.431Z,3.37
2017-10-29T21:19:02.854Z,2.63
2017-10-29T21:21:31.066Z,3.10
2017-10-29T21:23:58.503Z,2.90
2017-10-29T21:26:26.235Z,4.40
2017-10-29T21:28:54.474Z,3.10
2017-10-29T21:31:21.927Z,3.67
2017-10-29T21:33:49.357Z,3.40
2017-10-29T21:36:16.803Z,3.00
2017-10-29T21:38:44.239Z,2.80
2017-10-29T21:41:12.456Z,3.07
2017-10-29T21:43:39.935Z,2.70
2017-10-29T21:46:07.386Z,3.50
2017-10-29T21:48:34.834Z,3.60
2017-10-29T21:51:02.276Z,3.13
2017-10-29T21:53:29.766Z,3.57
2017-10-29T21:55:57.215Z,4.17
2017-10-29T21:58:24.684Z,3.80
2017-10-29T22:00:52.132Z,3.90
2017-10-29T22:03:19.611Z,4.17
2017-10-29T22:05:47.051Z,4.90
2017-10-29T22:08:14.495Z,2.80
2017-10-29T22:10:41.967Z,2.97
2017-10-29T22:13:09.417Z,3.90
2017-10-29T22:15:36.867Z,3.50
2017-10-29T22:18:04.317Z,3.97
2017-10-29T22:20:31.796Z,3.47
2017-10-29T22:22:59.237Z,3.30
2017-10-29T22:25:26.684Z,3.80
2017-10-29T22:27:54.138Z,3.90
2017-10-29T22:30:21.627Z,3.53
2017-10-29T22:32:49.071Z,3.40
2017-10-29T22:35:16.520Z,4.17
2017-10-29T22:37:43.996Z,4.13
2017-10-29T22:40:11.434Z,3.67
2017-10-29T22:42:38.895Z,4.13
2017-10-29T22:45:06.330Z,4.00
2017-10-29T22:47:33.779Z,3.63
2017-10-29T22:50:01.231Z,3.30
2017-10-29T22:52:29.446Z,4.10
2017-10-29T22:54:56.903Z,3.50
2017-10-29T22:57:24.335Z,3.80
2017-10-29T22:59:51.808Z,4.70
2017-10-29T23:02:19.243Z,3.13
2017-10-29T23:04:58.782Z,3.17
2017-10-29T23:07:26.235Z,3.33
2017-10-29T23:09:53.683Z,3.53
2017-10-29T23:12:21.985Z,4.20
2017-10-29T23:14:49.407Z,4.30
2017-10-29T23:17:17.711Z,4.37
2017-10-29T23:19:45.163Z,3.77
2017-10-29T23:22:12.707Z,3.70
2017-10-29T23:24:40.919Z,3.93
2017-10-29T23:27:08.397Z,4.33
2017-10-29T23:29:35.855Z,3.43
2017-10-29T23:32:03.432Z,3.30
2017-10-29T23:34:30.958Z,4.47
2017-10-29T23:36:58.415Z,3.20
2017-10-29T23:39:25.916Z,4.20
2017-10-29T23:41:53.468Z,3.90
2017-10-29T23:44:20.925Z,4.23
2017-10-29T23:46:48.447Z,3.27
2017-10-29T23:49:16.100Z,3.30
2017-10-29T23:51:43.600Z,4.10
2017-10-29T23:54:11.076Z,3.83
2017-10-29T23:56:39.306Z,6.17
2017-10-29T23:59:06.774Z,4.50
